Montgomery Regional Airport Airport (MGM)

Airport Diagram
Current Weather/Forecast (VFR Conditions)
METAR KMGM 152353Z 15004KT 10SM CLR 24/13 A3003 RMK AO2 SLP166 T02390133 10289 20239 58002 $
TAF KMGM 152340Z 1600/1624 18004KT P6SM FEW140 TEMPO 1611/1613 5SM BR BKN003 FM161600 17008G18KT P6SM SCT200

All Charts
General
Chart Name Download
AIRPORT DIAGRAM
TAKEOFF MINIMUMS
ALTERNATE MINIMUMS
RADAR MINIMUMS
HOT SPOT

Approaches
Chart Name Download
HI-ILS Y OR LOC Y RWY 10
ILS Y OR LOC RWY 28
ILS Z OR LOC Z RWY 10
ILS Z RWY 28
RNAV (GPS) RWY 03
RNAV (GPS) RWY 10
RNAV (GPS) RWY 28
VOR-A
HI-TACAN-J
NDB RWY 10


Inbound Traffic (Arrivals)

No inbound traffic.


Outbound Traffic (Departures)

No outbound traffic.